Time;durP1;ratioP1;P1;durP2;ratioP2;P2;SDS_P1;SDS_P2;PMS_P1;PMS_P2;Temp;Humidity;BMP_temperature;BMP_pressure;BME280_temperature;BME280_humidity;BME280_pressure;Samples;Min_cycle;Max_cycle;Signal;HPM_P1;HPM_P2
2023/12/29 00:00:44;;;;;;;16.13;3.70;;;11.20;72.80;;;;;;5048735;28;20119;-88
2023/12/29 00:03:11;;;;;;;11.68;3.97;;;11.10;72.50;;;;;;5024292;28;20028;-86
2023/12/29 00:05:37;;;;;;;15.20;4.13;;;11.20;72.70;;;;;;5037855;28;20036;-85
2023/12/29 00:08:07;;;;;;;14.40;3.95;;;11.20;72.70;;;;;;5015269;28;20570;-84
2023/12/29 00:10:33;;;;;;;15.85;3.20;;;11.10;72.50;;;;;;5036255;28;20262;-84
2023/12/29 00:12:59;;;;;;;12.63;2.88;;;11.20;72.70;;;;;;5046199;28;20033;-87
2023/12/29 00:15:25;;;;;;;18.50;4.35;;;11.20;72.70;;;;;;5034635;28;20040;-87
2023/12/29 00:17:52;;;;;;;21.23;4.40;;;11.20;72.60;;;;;;5038418;28;20031;-86
2023/12/29 00:20:18;;;;;;;16.52;3.58;;;11.10;72.50;;;;;;5038828;28;20029;-86
2023/12/29 00:22:44;;;;;;;18.40;4.85;;;11.10;72.50;;;;;;5053933;28;20078;-88
2023/12/29 00:25:11;;;;;;;23.13;4.07;;;11.10;72.50;;;;;;5055243;28;20029;-88
2023/12/29 00:27:37;;;;;;;17.77;3.88;;;11.10;73.00;;;;;;5034233;28;20032;-89
2023/12/29 00:30:03;;;;;;;13.27;3.72;;;11.10;72.50;;;;;;5038603;28;20478;-87
2023/12/29 00:32:29;;;;;;;16.85;3.55;;;11.10;72.50;;;;;;5037480;28;20060;-87
2023/12/29 00:34:56;;;;;;;11.38;3.53;;;11.10;72.40;;;;;;5036893;28;20020;-87
2023/12/29 00:37:22;;;;;;;15.30;3.30;;;11.10;72.50;;;;;;5035774;28;20041;-89
2023/12/29 00:39:48;;;;;;;15.57;3.45;;;11.10;72.50;;;;;;5033390;28;20071;-89
2023/12/29 00:42:14;;;;;;;15.38;3.40;;;11.00;72.30;;;;;;5016329;28;20069;-87
2023/12/29 00:44:41;;;;;;;18.58;3.20;;;11.10;72.50;;;;;;5051198;28;20076;-86
2023/12/29 00:47:07;;;;;;;17.27;3.95;;;11.00;72.30;;;;;;5059985;28;20041;-83
2023/12/29 00:49:33;;;;;;;13.27;3.50;;;11.10;72.40;;;;;;5063000;28;20033;-85
2023/12/29 00:52:00;;;;;;;15.85;3.88;;;11.00;72.30;;;;;;5061679;28;20036;-86
2023/12/29 00:54:26;;;;;;;19.65;4.65;;;11.00;72.30;;;;;;5077358;28;20025;-85
2023/12/29 00:56:52;;;;;;;18.25;3.70;;;11.00;72.30;;;;;;5058220;28;20285;-84
2023/12/29 00:59:20;;;;;;;19.02;3.92;;;11.00;72.30;;;;;;5055625;28;20029;-85
2023/12/29 01:01:46;;;;;;;15.82;3.72;;;11.00;72.30;;;;;;5043388;28;20048;-84
2023/12/29 01:04:13;;;;;;;17.58;3.25;;;11.00;72.30;;;;;;5027023;28;20037;-86
2023/12/29 01:06:40;;;;;;;17.17;4.20;;;11.00;72.30;;;;;;5040181;28;20152;-87
2023/12/29 01:09:08;;;;;;;16.20;3.65;;;11.00;72.30;;;;;;5041620;28;20021;-85
2023/12/29 01:11:35;;;;;;;16.92;3.50;;;11.00;72.30;;;;;;5039651;28;20048;-87
2023/12/29 01:14:01;;;;;;;15.75;4.72;;;11.00;72.30;;;;;;5037450;28;20030;-85
2023/12/29 01:16:27;;;;;;;11.63;3.30;;;11.00;72.30;;;;;;5032109;28;20237;-87
2023/12/29 01:18:53;;;;;;;18.08;4.32;;;11.00;72.40;;;;;;5034136;28;20368;-87
2023/12/29 01:21:19;;;;;;;15.68;3.78;;;11.00;72.40;;;;;;5037678;28;20033;-86
2023/12/29 01:23:45;;;;;;;15.80;2.95;;;11.00;72.40;;;;;;5020518;28;20041;-88
2023/12/29 01:26:12;;;;;;;23.13;3.55;;;11.00;72.40;;;;;;5049784;28;20094;-89
2023/12/29 01:28:38;;;;;;;19.05;4.53;;;10.90;72.20;;;;;;5017822;28;20033;-89
2023/12/29 01:31:05;;;;;;;15.13;3.45;;;10.90;72.30;;;;;;5045736;28;20038;-88
2023/12/29 01:33:30;;;;;;;13.85;2.78;;;11.00;72.50;;;;;;5037732;28;20048;-88
2023/12/29 01:35:57;;;;;;;15.05;3.45;;;10.90;72.30;;;;;;5032912;28;20068;-87
2023/12/29 01:38:23;;;;;;;15.20;3.17;;;10.90;72.40;;;;;;5040788;28;20128;-85
2023/12/29 01:40:49;;;;;;;12.50;3.28;;;10.90;72.40;;;;;;5039013;28;20033;-86
2023/12/29 01:43:15;;;;;;;13.70;3.60;;;10.90;72.40;;;;;;5037152;28;20475;-89
2023/12/29 01:45:41;;;;;;;17.17;3.97;;;10.90;72.40;;;;;;5026818;28;20025;-86
2023/12/29 01:48:08;;;;;;;16.05;3.75;;;10.90;72.40;;;;;;5018688;28;20065;-86
2023/12/29 01:50:36;;;;;;;17.02;4.38;;;10.90;72.40;;;;;;5034681;28;20146;-88
2023/12/29 01:53:05;;;;;;;13.45;3.13;;;10.90;72.50;;;;;;5021887;28;20037;-88
2023/12/29 01:55:32;;;;;;;13.90;3.15;;;10.90;72.50;;;;;;5029919;28;20120;-87
2023/12/29 01:57:58;;;;;;;19.17;3.50;;;10.90;72.50;;;;;;5035311;28;20584;-87
2023/12/29 02:00:26;;;;;;;11.15;2.92;;;10.90;72.50;;;;;;5018557;28;20188;-85
2023/12/29 02:02:53;;;;;;;13.93;2.88;;;10.90;72.50;;;;;;5036120;28;20356;-86
2023/12/29 02:05:21;;;;;;;13.27;2.58;;;10.90;72.50;;;;;;5050144;28;20464;-85
2023/12/29 02:07:51;;;;;;;14.40;2.88;;;10.90;72.50;;;;;;5037016;28;20032;-86
2023/12/29 02:10:18;;;;;;;13.27;3.10;;;10.90;72.50;;;;;;5038375;28;20051;-86
2023/12/29 02:12:46;;;;;;;14.63;3.28;;;10.80;72.40;;;;;;5047406;28;20033;-87
2023/12/29 02:15:12;;;;;;;10.77;3.08;;;10.80;72.50;;;;;;5050018;28;20037;-88
2023/12/29 02:17:51;;;;;;;12.95;2.80;;;10.90;72.60;;;;;;5057058;28;20044;-90
2023/12/29 02:20:20;;;;;;;16.38;2.95;;;10.90;72.70;;;;;;5025682;28;20089;-88
2023/12/29 02:22:45;;;;;;;14.35;2.88;;;10.90;72.70;;;;;;5045459;28;20028;-91
2023/12/29 02:25:13;;;;;;;15.07;3.35;;;10.90;72.60;;;;;;5044044;28;20075;-91
2023/12/29 02:27:44;;;;;;;9.13;2.45;;;10.90;72.60;;;;;;5061800;28;20070;-90
2023/12/29 02:30:12;;;;;;;10.77;2.40;;;10.80;72.50;;;;;;5049942;28;20052;-91
2023/12/29 02:32:46;;;;;;;10.45;2.42;;;10.80;72.50;;;;;;5049706;28;20035;-91
2023/12/29 02:35:18;;;;;;;9.05;1.55;;;10.80;72.50;;;;;;5037709;28;20490;-90
2023/12/29 02:37:46;;;;;;;9.55;1.63;;;10.90;72.60;;;;;;5053011;28;20037;-89
2023/12/29 02:40:12;;;;;;;8.73;2.05;;;10.90;72.60;;;;;;5040678;28;20049;-88
2023/12/29 02:42:48;;;;;;;9.18;1.77;;;10.90;73.10;;;;;;5040545;28;20040;-87
2023/12/29 02:45:17;;;;;;;7.53;2.08;;;10.90;72.60;;;;;;5018008;28;20037;-87
2023/12/29 02:47:45;;;;;;;8.55;2.35;;;10.90;72.50;;;;;;5042774;28;20049;-87
2023/12/29 02:50:11;;;;;;;8.07;1.58;;;10.90;72.50;;;;;;5024957;28;20037;-87
2023/12/29 02:52:37;;;;;;;12.00;2.55;;;10.90;72.50;;;;;;5042356;28;20478;-88
2023/12/29 02:55:04;;;;;;;6.68;1.48;;;10.90;72.50;;;;;;5037315;28;20037;-89
2023/12/29 02:57:30;;;;;;;10.82;1.88;;;10.90;72.50;;;;;;5052713;28;20083;-88
2023/12/29 02:59:56;;;;;;;8.93;1.80;;;10.90;72.50;;;;;;5027911;28;20501;-89
2023/12/29 03:02:25;;;;;;;7.13;2.13;;;10.90;72.50;;;;;;5056255;28;21090;-92
2023/12/29 03:04:51;;;;;;;7.68;2.58;;;10.90;72.50;;;;;;5059271;28;20021;-91
2023/12/29 03:07:17;;;;;;;6.10;1.95;;;10.90;72.50;;;;;;5041060;28;20369;-92
2023/12/29 03:09:43;;;;;;;5.57;2.10;;;10.80;72.40;;;;;;5040935;28;20115;-88
2023/12/29 03:12:09;;;;;;;8.50;1.95;;;10.80;72.40;;;;;;5045595;28;20056;-88
2023/12/29 03:14:35;;;;;;;5.60;1.88;;;10.80;72.40;;;;;;5037782;28;20032;-90
2023/12/29 03:17:01;;;;;;;8.90;1.70;;;10.80;72.40;;;;;;5043720;28;20106;-95
2023/12/29 03:19:27;;;;;;;8.93;1.83;;;10.80;72.40;;;;;;5027268;28;20056;-90
2023/12/29 03:21:54;;;;;;;7.05;2.10;;;10.80;72.40;;;;;;5033650;28;20028;-90
2023/12/29 03:24:21;;;;;;;6.45;1.90;;;10.80;72.40;;;;;;5016396;28;20116;-88
2023/12/29 03:26:48;;;;;;;5.55;1.63;;;10.80;72.40;;;;;;5048196;28;20025;-93
2023/12/29 03:29:17;;;;;;;8.30;2.15;;;10.80;72.40;;;;;;5016347;28;20040;-90
2023/12/29 03:31:43;;;;;;;7.13;1.80;;;10.80;72.40;;;;;;5039910;28;20025;-90
2023/12/29 03:34:09;;;;;;;9.90;2.22;;;10.80;72.50;;;;;;5030424;28;20035;-87
2023/12/29 03:36:35;;;;;;;7.93;1.95;;;10.80;72.50;;;;;;5035767;28;20061;-87
2023/12/29 03:39:02;;;;;;;9.38;2.75;;;10.80;72.50;;;;;;5036817;28;20029;-87
2023/12/29 03:41:28;;;;;;;10.73;2.25;;;10.80;72.50;;;;;;5044491;28;20029;-86
2023/12/29 03:43:56;;;;;;;9.73;1.65;;;10.80;72.50;;;;;;5037459;28;20048;-87
2023/12/29 03:46:23;;;;;;;8.82;1.70;;;10.80;72.50;;;;;;5037553;28;20461;-88
2023/12/29 03:48:51;;;;;;;9.40;2.10;;;10.80;72.50;;;;;;5039951;28;20417;-86
2023/12/29 03:51:18;;;;;;;9.15;1.77;;;10.80;72.50;;;;;;5018855;28;20059;-87
2023/12/29 03:53:45;;;;;;;6.95;1.92;;;10.80;72.50;;;;;;5033943;28;20021;-86
2023/12/29 03:56:16;;;;;;;7.25;1.85;;;10.90;72.60;;;;;;5032989;28;20450;-87
2023/12/29 03:58:43;;;;;;;7.90;1.83;;;10.80;72.50;;;;;;5052144;28;20095;-86
2023/12/29 04:01:13;;;;;;;9.43;2.40;;;10.80;72.50;;;;;;5038444;28;20082;-90
2023/12/29 04:03:40;;;;;;;8.93;1.83;;;10.80;72.50;;;;;;5042905;28;20116;-91
2023/12/29 04:06:07;;;;;;;10.70;2.72;;;10.80;72.50;;;;;;5052285;28;20494;-86
2023/12/29 04:08:34;;;;;;;9.38;1.88;;;10.90;73.20;;;;;;5022242;28;20102;-86
2023/12/29 04:11:01;;;;;;;8.35;1.58;;;10.80;72.60;;;;;;5039988;28;20779;-87
2023/12/29 04:13:27;;;;;;;7.57;1.60;;;10.80;72.50;;;;;;5035975;28;20479;-85
2023/12/29 04:15:53;;;;;;;7.63;1.70;;;10.90;72.70;;;;;;5057219;28;20069;-85
2023/12/29 04:18:22;;;;;;;9.45;2.13;;;10.80;72.50;;;;;;5025086;28;20123;-85
2023/12/29 04:20:49;;;;;;;6.80;2.17;;;10.80;72.50;;;;;;5052547;28;20545;-85
2023/12/29 04:23:15;;;;;;;6.78;2.08;;;10.90;72.70;;;;;;5015132;28;20025;-87
2023/12/29 04:25:44;;;;;;;7.75;1.63;;;10.80;72.50;;;;;;5041235;28;20527;-87
2023/12/29 04:28:11;;;;;;;8.73;1.35;;;10.90;72.70;;;;;;5041940;28;20037;-87
2023/12/29 04:30:37;;;;;;;5.88;1.70;;;10.90;72.70;;;;;;5038129;28;20025;-88
2023/12/29 04:33:05;;;;;;;6.60;1.50;;;10.80;72.50;;;;;;5064194;28;20032;-89
2023/12/29 04:35:32;;;;;;;8.23;1.65;;;10.80;72.50;;;;;;5051814;28;20048;-89
2023/12/29 04:37:58;;;;;;;7.75;2.22;;;10.80;72.50;;;;;;5043810;28;20025;-88
2023/12/29 04:40:24;;;;;;;6.22;1.33;;;10.80;72.50;;;;;;5041726;28;20057;-90
2023/12/29 04:42:50;;;;;;;5.95;1.20;;;10.80;72.50;;;;;;5059864;28;20021;-91
2023/12/29 04:45:16;;;;;;;7.97;2.15;;;10.80;72.60;;;;;;5037072;28;20057;-91
2023/12/29 04:47:42;;;;;;;6.43;1.30;;;10.80;72.60;;;;;;5027717;28;20052;-88
2023/12/29 04:50:08;;;;;;;8.82;1.52;;;10.80;72.60;;;;;;5040177;28;20156;-88
2023/12/29 04:52:34;;;;;;;7.10;2.10;;;10.80;72.60;;;;;;5055359;28;20127;-87
2023/12/29 04:55:01;;;;;;;11.38;1.95;;;10.80;72.60;;;;;;5049551;28;20140;-88
2023/12/29 04:57:27;;;;;;;6.40;1.92;;;10.80;72.60;;;;;;5023586;28;20039;-89
2023/12/29 04:59:53;;;;;;;8.38;1.35;;;10.80;72.60;;;;;;5035772;28;20573;-89
2023/12/29 05:02:19;;;;;;;6.88;1.40;;;10.80;72.60;;;;;;5055951;28;20036;-88
2023/12/29 05:04:46;;;;;;;7.15;1.50;;;10.80;72.60;;;;;;5029497;28;20396;-89
2023/12/29 05:07:12;;;;;;;6.68;1.52;;;10.80;72.60;;;;;;5042436;28;20501;-85
2023/12/29 05:09:39;;;;;;;8.40;1.73;;;10.80;72.60;;;;;;5040579;28;20033;-86
2023/12/29 05:12:05;;;;;;;5.93;1.13;;;10.80;72.70;;;;;;5041977;28;20080;-87
2023/12/29 05:14:31;;;;;;;7.53;1.40;;;10.80;72.60;;;;;;5019324;28;20033;-83
2023/12/29 05:16:57;;;;;;;7.80;1.23;;;10.90;72.80;;;;;;5049856;28;20095;-86
2023/12/29 05:19:23;;;;;;;7.68;2.10;;;10.90;72.80;;;;;;5040122;28;20108;-87
2023/12/29 05:21:51;;;;;;;9.02;2.20;;;10.80;72.70;;;;;;5034336;28;20065;-87
2023/12/29 05:24:17;;;;;;;6.43;1.38;;;10.90;72.80;;;;;;5036220;28;20043;-87
2023/12/29 05:26:44;;;;;;;7.85;1.55;;;10.90;72.80;;;;;;5037670;28;20517;-85
2023/12/29 05:29:10;;;;;;;7.30;1.48;;;10.90;72.80;;;;;;5023982;28;20033;-89
2023/12/29 05:31:36;;;;;;;4.68;1.25;;;10.90;72.80;;;;;;5041130;28;20122;-86
2023/12/29 05:34:02;;;;;;;6.45;1.08;;;10.90;72.80;;;;;;5042933;28;20120;-85
2023/12/29 05:36:28;;;;;;;7.43;1.42;;;10.90;72.80;;;;;;5024048;28;20041;-85
2023/12/29 05:38:56;;;;;;;7.35;1.75;;;10.90;72.80;;;;;;5053528;28;20057;-85
2023/12/29 05:41:21;;;;;;;2.55;1.10;;;10.90;72.80;;;;;;5051805;28;20517;-84
2023/12/29 05:43:48;;;;;;;4.97;1.00;;;10.90;72.80;;;;;;5040070;28;20025;-85
2023/12/29 05:46:14;;;;;;;6.75;1.30;;;10.90;72.80;;;;;;5042555;28;20372;-85
2023/12/29 05:48:43;;;;;;;7.00;1.55;;;10.90;72.90;;;;;;5035946;28;20103;-86
2023/12/29 05:51:09;;;;;;;5.68;1.48;;;10.90;72.90;;;;;;5056225;28;20086;-87
2023/12/29 05:53:36;;;;;;;6.25;1.33;;;10.90;72.90;;;;;;5041573;28;20047;-86
2023/12/29 05:56:03;;;;;;;4.30;1.00;;;10.90;72.80;;;;;;5051869;28;20060;-86
2023/12/29 05:58:29;;;;;;;6.00;1.38;;;10.90;72.80;;;;;;5053680;28;20283;-90
2023/12/29 06:00:56;;;;;;;2.72;1.10;;;10.90;72.80;;;;;;5044259;28;20108;-85
2023/12/29 06:03:22;;;;;;;5.72;1.60;;;10.90;72.80;;;;;;5045581;28;20025;-85
2023/12/29 06:05:48;;;;;;;7.82;1.67;;;10.90;72.90;;;;;;5038399;28;20326;-85
2023/12/29 06:08:17;;;;;;;11.43;2.08;;;10.90;72.90;;;;;;5046775;28;20029;-84
2023/12/29 06:10:44;;;;;;;10.38;2.80;;;10.90;72.90;;;;;;5022196;28;20418;-85
2023/12/29 06:13:10;;;;;;;6.57;1.65;;;10.90;72.90;;;;;;5029366;28;20033;-85
2023/12/29 06:15:38;;;;;;;8.25;1.42;;;10.90;72.90;;;;;;5041239;28;20040;-90
2023/12/29 06:18:04;;;;;;;8.20;1.55;;;10.80;72.70;;;;;;5026566;28;20052;-86
2023/12/29 06:20:30;;;;;;;6.55;1.52;;;10.90;72.90;;;;;;5054691;28;20090;-87
2023/12/29 06:22:56;;;;;;;5.15;1.42;;;10.80;72.80;;;;;;5040016;28;20482;-87
2023/12/29 06:25:22;;;;;;;5.95;1.40;;;10.80;72.70;;;;;;5034491;28;20028;-87
2023/12/29 06:27:48;;;;;;;5.32;1.23;;;10.80;72.80;;;;;;5039155;28;20034;-86
2023/12/29 06:30:15;;;;;;;8.57;1.65;;;10.80;72.80;;;;;;5023530;28;20215;-85
2023/12/29 06:32:41;;;;;;;7.60;2.00;;;10.80;72.80;;;;;;5059835;28;20028;-83
2023/12/29 06:35:09;;;;;;;6.95;1.75;;;10.70;72.60;;;;;;5022456;28;20032;-84
2023/12/29 06:37:39;;;;;;;8.70;1.98;;;10.80;72.80;;;;;;5057589;28;20048;-79
2023/12/29 06:40:06;;;;;;;7.70;2.40;;;10.80;72.90;;;;;;5079916;28;20274;-86
2023/12/29 06:42:32;;;;;;;5.15;1.25;;;10.80;72.80;;;;;;5060233;28;20109;-85
2023/12/29 06:44:59;;;;;;;5.72;1.60;;;10.80;72.90;;;;;;5060550;28;20048;-85
2023/12/29 06:47:24;;;;;;;7.07;1.60;;;10.80;72.90;;;;;;5060919;28;20064;-85
2023/12/29 06:49:50;;;;;;;7.95;1.88;;;10.80;72.90;;;;;;5069629;28;20089;-85
2023/12/29 06:52:17;;;;;;;7.90;1.88;;;10.80;72.90;;;;;;5073690;28;20009;-85
2023/12/29 06:54:42;;;;;;;7.85;1.65;;;10.80;73.00;;;;;;5058081;28;20321;-84
2023/12/29 06:57:09;;;;;;;6.57;1.48;;;10.80;73.00;;;;;;5047450;28;20072;-86
2023/12/29 06:59:35;;;;;;;7.85;1.95;;;10.80;73.00;;;;;;5051676;28;20112;-86
2023/12/29 07:02:01;;;;;;;6.32;1.90;;;10.80;73.10;;;;;;5041136;28;20132;-84
2023/12/29 07:04:27;;;;;;;6.95;1.98;;;10.80;73.10;;;;;;5040686;28;20538;-85
2023/12/29 07:06:53;;;;;;;5.68;1.55;;;10.80;73.10;;;;;;5056867;28;20346;-85
2023/12/29 07:09:19;;;;;;;8.20;1.73;;;10.70;73.00;;;;;;5036863;28;20025;-86
2023/12/29 07:11:49;;;;;;;7.72;2.00;;;10.70;73.00;;;;;;5049876;28;20609;-85
2023/12/29 07:14:15;;;;;;;6.80;1.52;;;10.80;73.20;;;;;;5034810;28;20172;-84
2023/12/29 07:16:41;;;;;;;10.02;2.08;;;10.70;73.10;;;;;;5030451;28;20037;-84
2023/12/29 07:19:07;;;;;;;8.60;1.88;;;10.70;73.10;;;;;;5034641;28;20060;-86
2023/12/29 07:21:34;;;;;;;7.22;1.48;;;10.70;73.10;;;;;;5031232;28;20032;-85
2023/12/29 07:24:00;;;;;;;8.80;3.08;;;10.70;73.10;;;;;;5034752;28;20037;-85
2023/12/29 07:26:26;;;;;;;11.05;2.42;;;10.70;73.10;;;;;;5037205;28;20633;-84
2023/12/29 07:28:54;;;;;;;6.88;1.33;;;10.70;73.20;;;;;;5039949;28;20024;-86
2023/12/29 07:31:21;;;;;;;5.90;2.60;;;10.70;73.30;;;;;;5048605;28;20501;-84
2023/12/29 07:33:49;;;;;;;5.10;1.30;;;10.70;73.30;;;;;;5040102;28;20055;-85
2023/12/29 07:36:15;;;;;;;7.03;2.20;;;10.70;73.30;;;;;;5047546;28;20037;-85
2023/12/29 07:38:42;;;;;;;7.35;1.38;;;10.70;73.40;;;;;;5049959;28;20032;-86
2023/12/29 07:41:08;;;;;;;8.20;1.70;;;10.70;73.40;;;;;;5020828;28;20431;-86
2023/12/29 07:43:38;;;;;;;6.63;1.60;;;10.70;73.50;;;;;;5029250;28;20025;-86
2023/12/29 07:46:04;;;;;;;6.40;1.20;;;10.70;73.50;;;;;;5033594;28;20116;-86
2023/12/29 07:48:30;;;;;;;5.82;1.42;;;10.70;73.50;;;;;;5033692;28;20633;-83
2023/12/29 07:51:04;;;;;;;5.00;1.48;;;10.70;73.50;;;;;;5040409;28;20094;-84
2023/12/29 07:53:30;;;;;;;5.80;1.40;;;10.70;73.60;;;;;;5029019;28;20129;-82
2023/12/29 07:55:56;;;;;;;5.97;1.40;;;10.70;73.60;;;;;;5041131;28;20449;-82
2023/12/29 07:58:22;;;;;;;5.07;1.48;;;10.70;73.60;;;;;;5034531;28;20549;-82
2023/12/29 08:00:48;;;;;;;6.00;1.13;;;10.70;73.60;;;;;;5033029;28;20123;-84
2023/12/29 08:03:14;;;;;;;5.10;2.00;;;10.70;73.60;;;;;;5034453;28;20675;-82
2023/12/29 08:05:40;;;;;;;7.07;1.55;;;10.70;73.70;;;;;;5021841;28;20048;-84
2023/12/29 08:08:06;;;;;;;5.07;1.27;;;10.60;73.50;;;;;;5040686;28;20424;-84
2023/12/29 08:10:32;;;;;;;4.65;1.33;;;10.70;73.70;;;;;;5052666;28;20052;-85
2023/12/29 08:12:58;;;;;;;8.23;2.38;;;10.70;73.80;;;;;;5037973;28;20705;-85
2023/12/29 08:15:24;;;;;;;5.55;1.67;;;10.70;73.80;;;;;;5045953;28;20030;-86
2023/12/29 08:17:50;;;;;;;5.82;1.27;;;10.70;73.80;;;;;;5032106;28;20495;-85
2023/12/29 08:20:16;;;;;;;5.43;1.30;;;10.60;73.70;;;;;;5036192;28;20116;-85
2023/12/29 08:22:43;;;;;;;3.67;0.82;;;10.70;73.90;;;;;;5037087;28;20029;-84
2023/12/29 08:25:12;;;;;;;6.05;1.45;;;10.60;73.80;;;;;;5035883;28;20028;-85
2023/12/29 08:27:38;;;;;;;7.75;1.40;;;10.60;73.70;;;;;;5050925;28;20051;-85
2023/12/29 08:30:04;;;;;;;5.50;1.65;;;10.60;73.80;;;;;;5036323;28;20025;-84
2023/12/29 08:32:31;;;;;;;4.88;1.58;;;10.60;73.80;;;;;;5028954;28;20053;-85
2023/12/29 08:34:57;;;;;;;5.63;1.10;;;10.60;73.90;;;;;;5034603;28;20390;-84
2023/12/29 08:37:23;;;;;;;7.82;1.33;;;10.60;73.90;;;;;;5041965;28;20048;-82
2023/12/29 08:39:50;;;;;;;7.88;1.77;;;10.60;73.90;;;;;;5014213;28;20021;-85
2023/12/29 08:42:17;;;;;;;5.65;0.93;;;10.60;73.90;;;;;;5034348;28;20305;-86
2023/12/29 08:44:43;;;;;;;4.45;1.00;;;10.70;74.10;;;;;;5020047;28;20029;-84
2023/12/29 08:47:09;;;;;;;3.58;0.90;;;10.70;74.10;;;;;;5033875;28;20045;-84
2023/12/29 08:49:37;;;;;;;7.22;1.30;;;10.70;74.20;;;;;;5037171;28;20311;-84
2023/12/29 08:52:04;;;;;;;4.70;1.70;;;10.70;74.20;;;;;;5033413;28;20689;-81
2023/12/29 08:54:32;;;;;;;3.53;1.08;;;10.60;74.50;;;;;;5043602;28;20052;-87
2023/12/29 08:56:59;;;;;;;3.83;0.80;;;10.60;74.10;;;;;;5056497;28;20032;-88
2023/12/29 08:59:25;;;;;;;6.07;1.05;;;10.60;74.10;;;;;;5046255;28;20181;-87
2023/12/29 09:01:55;;;;;;;5.95;1.20;;;10.70;74.50;;;;;;5055121;28;20024;-86
2023/12/29 09:04:21;;;;;;;5.00;1.02;;;10.70;74.60;;;;;;5045095;28;20048;-86
2023/12/29 09:06:48;;;;;;;2.92;1.70;;;10.70;74.60;;;;;;5039954;28;20033;-89
2023/12/29 09:09:14;;;;;;;4.72;0.60;;;10.70;74.60;;;;;;5020122;28;20128;-88
2023/12/29 09:11:42;;;;;;;3.75;1.05;;;10.70;74.60;;;;;;5044307;28;20120;-88
2023/12/29 09:14:08;;;;;;;3.55;1.00;;;10.70;74.60;;;;;;5025671;28;20026;-92
2023/12/29 09:16:36;;;;;;;3.10;0.98;;;10.70;74.60;;;;;;5054664;28;20145;-89
2023/12/29 09:19:02;;;;;;;3.63;0.73;;;10.70;74.60;;;;;;5040423;28;20190;-88
2023/12/29 09:21:30;;;;;;;4.28;1.15;;;10.80;74.80;;;;;;5024611;28;20040;-89
2023/12/29 09:23:56;;;;;;;4.20;0.60;;;10.80;74.80;;;;;;5051171;28;20367;-90
2023/12/29 09:26:22;;;;;;;1.25;0.45;;;10.70;74.60;;;;;;5026913;28;20040;-88
2023/12/29 09:28:48;;;;;;;1.77;0.60;;;10.80;74.80;;;;;;5042777;28;20522;-87
2023/12/29 09:31:14;;;;;;;2.05;0.80;;;10.80;74.80;;;;;;5047551;28;20029;-88
2023/12/29 09:33:40;;;;;;;1.55;0.73;;;10.80;74.80;;;;;;5040308;28;20263;-86
2023/12/29 09:36:09;;;;;;;4.72;1.23;;;10.80;74.80;;;;;;5037589;28;20128;-89
2023/12/29 09:38:35;;;;;;;3.28;1.73;;;10.80;74.80;;;;;;5062115;28;20089;-89
2023/12/29 09:41:09;;;;;;;1.70;0.63;;;10.80;74.70;;;;;;5040930;28;20412;-85
2023/12/29 09:43:36;;;;;;;2.55;0.80;;;10.90;74.90;;;;;;5055599;28;20028;-85
2023/12/29 09:46:04;;;;;;;2.42;1.00;;;10.90;74.90;;;;;;5034890;28;20056;-86
2023/12/29 09:48:33;;;;;;;2.58;0.70;;;10.90;74.80;;;;;;5051166;28;20117;-88
2023/12/29 09:50:59;;;;;;;3.53;0.85;;;10.90;74.80;;;;;;5048618;28;20047;-87
2023/12/29 09:53:27;;;;;;;2.25;0.68;;;10.90;74.80;;;;;;5050960;28;20058;-88
2023/12/29 09:55:54;;;;;;;3.72;0.82;;;10.90;74.80;;;;;;5034973;28;20132;-90
2023/12/29 09:58:22;;;;;;;2.70;0.75;;;10.90;74.80;;;;;;5026788;28;20029;-91
2023/12/29 10:00:51;;;;;;;3.20;0.77;;;10.90;74.70;;;;;;5022337;28;20021;-89
2023/12/29 10:03:17;;;;;;;1.13;0.65;;;11.00;75.00;;;;;;5036111;28;20059;-88
2023/12/29 10:05:49;;;;;;;1.33;0.65;;;11.00;75.00;;;;;;5003227;28;20038;-90
2023/12/29 10:08:17;;;;;;;2.30;0.70;;;11.00;75.00;;;;;;5026689;28;20402;-93
2023/12/29 10:10:46;;;;;;;3.10;1.02;;;11.00;74.90;;;;;;5028188;28;20032;-91
2023/12/29 10:13:14;;;;;;;2.60;0.90;;;11.00;74.90;;;;;;5030630;28;20454;-92
2023/12/29 10:15:49;;;;;;;2.35;1.30;;;11.00;74.80;;;;;;5049447;28;20186;-84
2023/12/29 10:18:41;;;;;;;1.83;1.00;;;11.00;74.80;;;;;;5063147;28;20048;-88
2023/12/29 10:21:12;;;;;;;3.57;0.70;;;11.00;74.80;;;;;;5038157;28;20442;-91
2023/12/29 10:23:43;;;;;;;3.38;0.65;;;11.00;74.80;;;;;;5051747;28;20282;-88
2023/12/29 10:26:13;;;;;;;0.90;0.57;;;11.00;74.80;;;;;;5037267;28;20093;-90
2023/12/29 10:28:43;;;;;;;2.85;0.43;;;11.10;75.00;;;;;;5035490;28;20029;-87
2023/12/29 10:31:15;;;;;;;2.05;0.60;;;11.10;75.00;;;;;;5041685;28;20029;-89
2023/12/29 10:33:42;;;;;;;2.97;0.88;;;11.10;74.90;;;;;;5052899;28;20033;-90
2023/12/29 10:36:08;;;;;;;1.58;0.75;;;11.10;74.80;;;;;;5035311;28;20190;-90
2023/12/29 10:38:43;;;;;;;3.33;0.60;;;11.10;74.80;;;;;;5034531;28;20557;-93
2023/12/29 10:41:18;;;;;;;4.78;0.57;;;11.10;74.70;;;;;;5026716;28;20346;-90
2023/12/29 10:43:52;;;;;;;2.78;0.73;;;11.10;74.70;;;;;;5042438;28;20036;-92
2023/12/29 10:46:18;;;;;;;2.28;0.50;;;11.10;74.60;;;;;;5046717;28;20036;-93
2023/12/29 10:48:45;;;;;;;2.38;0.50;;;11.20;74.70;;;;;;5034721;28;20139;-92
2023/12/29 10:51:14;;;;;;;3.55;0.88;;;11.20;74.60;;;;;;5066310;28;20033;-94
2023/12/29 10:53:42;;;;;;;3.28;0.50;;;11.20;74.50;;;;;;5055585;28;20033;-94
2023/12/29 10:56:21;;;;;;;2.17;0.47;;;11.30;74.60;;;;;;5091250;28;20032;-94
2023/12/29 10:58:59;;;;;;;0.68;0.30;;;11.40;74.60;;;;;;5042272;28;20047;-92
2023/12/29 11:01:29;;;;;;;1.05;0.47;;;11.40;74.60;;;;;;5044725;28;20063;-96
2023/12/29 11:04:02;;;;;;;1.83;0.60;;;11.50;74.50;;;;;;5051762;28;20048;-91
2023/12/29 11:06:29;;;;;;;1.85;0.55;;;11.50;74.50;;;;;;5062052;28;20025;-96
2023/12/29 11:08:57;;;;;;;2.00;0.57;;;11.60;74.60;;;;;;5034985;28;20375;-94
2023/12/29 11:11:23;;;;;;;2.15;0.55;;;11.60;74.50;;;;;;5033233;28;20686;-92
2023/12/29 11:13:50;;;;;;;2.08;0.57;;;11.60;74.40;;;;;;5046877;28;20354;-92
2023/12/29 11:16:21;;;;;;;1.25;0.40;;;11.60;74.50;;;;;;5027187;28;20083;-89
2023/12/29 11:18:52;;;;;;;2.20;0.60;;;11.70;74.60;;;;;;5043699;28;20044;-89
2023/12/29 11:21:21;;;;;;;2.03;0.43;;;11.70;74.60;;;;;;5030586;28;20041;-89
2023/12/29 11:23:49;;;;;;;1.52;0.47;;;11.70;74.50;;;;;;5051889;28;20025;-90
2023/12/29 11:26:18;;;;;;;0.93;0.40;;;11.80;74.60;;;;;;5031363;28;20037;-90
2023/12/29 11:28:50;;;;;;;5.18;0.70;;;11.80;74.50;;;;;;5034934;28;20109;-90
2023/12/29 11:31:17;;;;;;;;;;;11.80;74.50;;;;;;5057072;28;20037;-94
2023/12/29 11:33:52;;;;;;;5.13;1.00;;;11.80;74.50;;;;;;5044899;28;19917;-94
2023/12/29 11:36:32;;;;;;;3.33;0.95;;;11.80;74.40;;;;;;5025303;28;20366;-93
2023/12/29 11:39:19;;;;;;;4.35;0.82;;;11.90;74.60;;;;;;5048005;28;20024;-96
2023/12/29 11:42:06;;;;;;;5.32;1.30;;;11.90;75.00;;;;;;5029882;28;20028;-94
2023/12/29 11:44:33;;;;;;;4.63;0.85;;;11.90;74.50;;;;;;5049393;28;20336;-96
2023/12/29 11:47:02;;;;;;;3.83;1.10;;;11.90;74.40;;;;;;5023993;28;20435;-93
2023/12/29 11:50:02;;;;;;;3.78;0.77;;;11.90;74.40;;;;;;5043684;28;20480;-96
2023/12/29 11:52:35;;;;;;;3.67;0.70;;;11.90;74.30;;;;;;5037267;28;20025;-93
2023/12/29 11:55:09;;;;;;;2.15;0.68;;;11.90;74.30;;;;;;5026950;28;20286;-92
2023/12/29 11:57:38;;;;;;;2.25;0.60;;;11.90;74.40;;;;;;5040520;28;20124;-93
2023/12/29 12:00:06;;;;;;;2.60;0.55;;;11.90;74.30;;;;;;5027885;28;20039;-95
2023/12/29 12:02:41;;;;;;;4.18;0.93;;;12.00;74.50;;;;;;5043251;28;20119;-94
2023/12/29 12:05:12;;;;;;;5.38;0.70;;;12.00;74.50;;;;;;5020660;28;20040;-93
2023/12/29 12:07:45;;;;;;;3.75;1.13;;;12.00;74.40;;;;;;5051276;28;20024;-96
2023/12/29 12:10:25;;;;;;;2.70;0.70;;;12.00;74.40;;;;;;5082533;28;20032;-96
2023/12/29 12:12:53;;;;;;;3.47;1.17;;;12.10;74.50;;;;;;5035960;28;20063;-88
2023/12/29 12:15:28;;;;;;;5.82;1.05;;;12.10;74.40;;;;;;5041869;28;20497;-85
2023/12/29 12:17:55;;;;;;;2.50;0.73;;;12.10;74.30;;;;;;5041640;28;20030;-86
2023/12/29 12:20:21;;;;;;;4.03;1.00;;;12.10;74.30;;;;;;5029753;28;20032;-85
2023/12/29 12:22:56;;;;;;;6.20;1.25;;;12.10;74.30;;;;;;5060736;28;20041;-87
2023/12/29 12:25:25;;;;;;;5.53;0.80;;;12.10;74.20;;;;;;5051276;28;20036;-85
2023/12/29 12:27:51;;;;;;;5.85;1.35;;;12.20;74.40;;;;;;5054932;28;20252;-86
2023/12/29 12:30:21;;;;;;;2.75;0.90;;;12.20;74.30;;;;;;5066596;28;20033;-88
2023/12/29 12:32:57;;;;;;;4.03;1.13;;;12.20;74.20;;;;;;5025092;28;20056;-87
2023/12/29 12:35:26;;;;;;;6.15;1.08;;;12.20;74.20;;;;;;5040796;28;20021;-87
2023/12/29 12:38:13;;;;;;;5.45;1.35;;;12.20;74.20;;;;;;5056765;28;20024;-84
2023/12/29 12:40:39;;;;;;;11.10;1.83;;;12.30;74.40;;;;;;5064012;28;20164;-91
2023/12/29 12:43:13;;;;;;;4.38;1.33;;;12.40;74.90;;;;;;5041058;28;20111;-89
2023/12/29 12:46:04;;;;;;;6.43;1.25;;;12.60;74.50;;;;;;5065158;28;20032;-89
2023/12/29 12:48:39;;;;;;;6.63;1.20;;;12.80;74.50;;;;;;5061504;28;20048;-89